createdAt,value
2023-03-08T00:00:29.511Z,4.62
2023-03-08T00:05:33.204Z,4.54
2023-03-08T00:10:34.766Z,4.39
2023-03-08T00:15:38.153Z,4.24
2023-03-08T00:20:39.673Z,4.17
2023-03-08T00:25:41.191Z,4.07
2023-03-08T00:30:42.686Z,3.87
2023-03-08T00:35:44.276Z,3.60
2023-03-08T00:40:45.830Z,3.38
2023-03-08T00:45:48.779Z,3.26
2023-03-08T00:50:52.206Z,3.21
2023-03-08T00:55:58.641Z,3.09
2023-03-08T01:01:01.282Z,3.03
2023-03-08T01:06:09.577Z,2.95
2023-03-08T01:11:23.941Z,2.83
2023-03-08T01:16:31.484Z,2.73
2023-03-08T01:21:33.657Z,2.67
2023-03-08T01:26:35.229Z,2.58
2023-03-08T01:31:36.931Z,2.51
2023-03-08T01:36:38.510Z,2.37
2023-03-08T01:41:40.062Z,2.32
2023-03-08T01:46:41.862Z,2.31
2023-03-08T01:52:09.802Z,2.22
2023-03-08T01:57:17.504Z,2.17
2023-03-08T02:02:28.253Z,2.21
2023-03-08T02:07:30.657Z,2.29
2023-03-08T02:12:33.965Z,2.40
2023-03-08T02:17:38.526Z,2.53
2023-03-08T02:22:41.772Z,2.71
2023-03-08T02:27:44.208Z,2.89
2023-03-08T02:32:45.884Z,3.03
2023-03-08T02:37:47.579Z,3.13
2023-03-08T02:42:50.691Z,3.17
2023-03-08T02:47:53.352Z,3.26
2023-03-08T02:52:55.315Z,3.29
2023-03-08T02:57:56.938Z,3.34
2023-03-08T03:02:58.638Z,3.30
2023-03-08T03:08:02.347Z,3.17
2023-03-08T03:13:06.300Z,3.05
2023-03-08T03:18:07.928Z,2.91
2023-03-08T03:23:09.511Z,2.77
2023-03-08T03:28:19.198Z,2.67
2023-03-08T03:33:21.296Z,2.72
2023-03-08T03:38:23.510Z,2.83
2023-03-08T03:43:25.129Z,2.88
2023-03-08T03:48:27.488Z,2.94
2023-03-08T03:53:30.664Z,2.96
2023-03-08T03:58:32.686Z,2.97
2023-03-08T04:03:34.616Z,3.00
2023-03-08T04:08:42.280Z,3.00
2023-03-08T04:13:46.990Z,3.02
2023-03-08T04:18:52.875Z,3.05
2023-03-08T04:23:55.041Z,3.11
2023-03-08T04:28:57.476Z,3.15
2023-03-08T04:34:02.418Z,3.17
2023-03-08T04:39:04.297Z,3.15
2023-03-08T04:44:06.297Z,3.09
2023-03-08T04:49:15.657Z,3.10
2023-03-08T04:54:21.198Z,3.13
2023-03-08T04:59:28.862Z,3.16
2023-03-08T05:04:33.289Z,3.13
2023-03-08T05:09:35.390Z,3.10
2023-03-08T05:14:37.262Z,3.09
2023-03-08T05:19:38.878Z,3.05
2023-03-08T05:24:41.700Z,3.07
2023-03-08T05:29:46.120Z,2.95
2023-03-08T05:34:48.641Z,2.91
2023-03-08T05:39:58.372Z,2.96
2023-03-08T05:45:00.152Z,3.03
2023-03-08T05:50:05.808Z,3.05
2023-03-08T05:55:11.074Z,3.07
2023-03-08T06:00:14.726Z,3.06
2023-03-08T06:05:23.882Z,3.08
2023-03-08T06:10:28.874Z,2.97
2023-03-08T06:15:30.580Z,3.07
2023-03-08T06:20:32.972Z,3.15
2023-03-08T06:25:35.253Z,3.21
2023-03-08T06:30:37.179Z,3.27
2023-03-08T06:35:39.880Z,3.37
2023-03-08T06:40:41.489Z,3.44
2023-03-08T06:45:43.142Z,3.50
2023-03-08T06:50:45.239Z,3.46
2023-03-08T06:55:47.164Z,3.21
2023-03-08T07:00:49.279Z,3.02
2023-03-08T07:05:50.817Z,2.96
2023-03-08T07:10:52.544Z,2.97
2023-03-08T07:15:54.201Z,3.10
2023-03-08T07:20:56.628Z,3.25
2023-03-08T07:25:58.257Z,3.41
2023-03-08T07:31:00.467Z,3.52
2023-03-08T07:36:04.599Z,3.59
2023-03-08T07:41:06.281Z,3.59
2023-03-08T07:46:07.812Z,3.55
2023-03-08T07:51:10.318Z,3.35
2023-03-08T07:56:12.014Z,3.24
2023-03-08T08:01:14.687Z,3.09
2023-03-08T08:06:17.651Z,2.98
2023-03-08T08:11:22.508Z,2.86
2023-03-08T08:16:24.261Z,2.68
2023-03-08T08:21:27.177Z,2.52
2023-03-08T08:26:29.093Z,2.49
2023-03-08T08:31:33.306Z,2.46
2023-03-08T08:36:35.098Z,2.37
2023-03-08T08:41:36.742Z,2.32
2023-03-08T08:46:38.275Z,2.39
2023-03-08T08:51:39.842Z,2.44
2023-03-08T08:56:43.151Z,2.46
2023-03-08T09:01:44.906Z,2.40
2023-03-08T09:06:47.300Z,2.43
2023-03-08T09:11:54.981Z,2.47
2023-03-08T09:16:57.357Z,2.58
2023-03-08T09:21:59.067Z,2.70
2023-03-08T09:27:00.684Z,2.93
2023-03-08T09:32:02.280Z,3.08
2023-03-08T09:37:05.822Z,3.25
2023-03-08T09:42:20.577Z,3.48
2023-03-08T09:47:51.587Z,3.71
2023-03-08T09:53:16.534Z,3.91
2023-03-08T09:58:40.713Z,4.02
2023-03-08T10:04:09.888Z,4.16
2023-03-08T10:09:34.454Z,4.22
2023-03-08T10:14:40.408Z,4.31
2023-03-08T10:19:53.182Z,4.41
2023-03-08T10:25:01.972Z,4.49
2023-03-08T10:30:16.977Z,4.77
2023-03-08T10:35:30.118Z,4.91
2023-03-08T10:40:31.756Z,4.60
2023-03-08T10:45:33.629Z,4.50
2023-03-08T10:50:36.937Z,4.69
2023-03-08T10:55:44.282Z,4.79
2023-03-08T11:00:54.354Z,4.92
2023-03-08T11:06:05.949Z,5.29
2023-03-08T11:11:10.244Z,6.18
2023-03-08T11:16:53.373Z,7.13
2023-03-08T11:22:05.085Z,7.70
2023-03-08T11:27:06.620Z,8.00
2023-03-08T11:32:14.186Z,8.33
2023-03-08T11:37:59.754Z,8.62
2023-03-08T11:43:18.378Z,8.88
2023-03-08T11:48:34.214Z,9.18
2023-03-08T11:53:54.703Z,9.43
2023-03-08T11:59:05.441Z,9.67
2023-03-08T12:04:17.367Z,9.78
2023-03-08T12:09:48.806Z,9.85
2023-03-08T12:15:00.348Z,9.98
2023-03-08T12:20:08.171Z,10.12
2023-03-08T12:25:20.784Z,10.21
2023-03-08T12:30:33.640Z,10.34
2023-03-08T12:35:37.173Z,10.49
2023-03-08T12:40:47.508Z,10.59
2023-03-08T12:46:09.676Z,10.69
2023-03-08T12:51:17.156Z,10.76
2023-03-08T12:56:34.373Z,10.89
2023-03-08T13:01:38.216Z,11.04
2023-03-08T13:06:51.636Z,11.12
2023-03-08T13:12:12.074Z,11.21
2023-03-08T13:17:32.371Z,11.19
2023-03-08T13:22:53.062Z,11.10
2023-03-08T13:28:11.462Z,11.01
2023-03-08T13:33:15.859Z,10.71
2023-03-08T13:38:22.073Z,9.98
2023-03-08T13:43:26.482Z,9.46
2023-03-08T13:48:36.110Z,9.25
2023-03-08T13:53:40.260Z,9.16
2023-03-08T13:58:46.701Z,9.15
2023-03-08T14:03:49.475Z,9.18
2023-03-08T14:08:53.562Z,9.05
2023-03-08T14:13:57.024Z,8.86
2023-03-08T14:19:21.800Z,8.80
2023-03-08T14:24:26.896Z,8.81
2023-03-08T14:29:30.520Z,8.85
2023-03-08T14:34:36.414Z,8.88
2023-03-08T14:39:41.656Z,8.98
2023-03-08T14:44:51.649Z,9.11
2023-03-08T14:49:59.450Z,9.27
2023-03-08T14:55:03.336Z,9.55
2023-03-08T15:00:14.540Z,9.86
2023-03-08T15:05:28.319Z,10.16
2023-03-08T15:10:37.355Z,10.35
2023-03-08T15:15:38.909Z,10.52
2023-03-08T15:20:45.016Z,10.64
2023-03-08T15:25:46.546Z,10.71
2023-03-08T15:30:54.596Z,10.79
2023-03-08T15:35:56.355Z,10.89
2023-03-08T15:40:57.906Z,10.97
2023-03-08T15:45:59.518Z,11.04
2023-03-08T15:51:01.198Z,11.07
2023-03-08T15:56:05.117Z,11.07
2023-03-08T16:01:07.157Z,11.10
2023-03-08T16:06:13.206Z,11.16
2023-03-08T16:11:17.384Z,11.21
2023-03-08T16:16:20.064Z,11.25
2023-03-08T16:21:21.608Z,11.31
2023-03-08T16:26:24.205Z,11.34
2023-03-08T16:31:25.767Z,11.38
2023-03-08T16:36:27.267Z,11.41
2023-03-08T16:41:30.075Z,11.36
2023-03-08T16:46:32.346Z,11.41
2023-03-08T16:51:37.303Z,11.46
2023-03-08T16:56:43.408Z,11.47
2023-03-08T17:01:47.301Z,11.46
2023-03-08T17:06:49.802Z,11.48
2023-03-08T17:11:51.322Z,11.51
2023-03-08T17:16:52.901Z,11.51
2023-03-08T17:21:54.536Z,11.51
2023-03-08T17:26:56.124Z,11.48
2023-03-08T17:31:57.660Z,11.47
2023-03-08T17:36:59.183Z,11.54
2023-03-08T17:42:00.672Z,11.56
2023-03-08T17:47:02.210Z,11.51
2023-03-08T17:52:03.837Z,11.47
2023-03-08T17:57:05.407Z,11.34
2023-03-08T18:02:07.019Z,10.54
2023-03-08T18:07:08.558Z,10.08
2023-03-08T18:12:10.208Z,10.04
2023-03-08T18:17:12.530Z,10.23
2023-03-08T18:22:15.667Z,10.47
2023-03-08T18:27:17.335Z,9.75
2023-03-08T18:32:18.978Z,9.41
2023-03-08T18:37:21.626Z,9.28
2023-03-08T18:42:23.243Z,9.16
2023-03-08T18:47:24.854Z,9.06
2023-03-08T18:52:26.403Z,9.00
2023-03-08T18:57:27.955Z,8.99
2023-03-08T19:02:29.753Z,8.99
2023-03-08T19:07:31.379Z,8.94
2023-03-08T19:12:33.696Z,8.90
2023-03-08T19:17:35.260Z,8.87
2023-03-08T19:22:36.857Z,8.88
2023-03-08T19:27:38.362Z,8.88
2023-03-08T19:32:42.493Z,8.88
2023-03-08T19:37:44.214Z,8.90
2023-03-08T19:42:45.767Z,8.87
2023-03-08T19:47:47.281Z,8.84
2023-03-08T19:52:48.850Z,8.83
2023-03-08T19:57:50.364Z,8.84
2023-03-08T20:02:51.903Z,8.85
2023-03-08T20:07:53.424Z,8.82
2023-03-08T20:12:54.958Z,8.80
2023-03-08T20:17:56.582Z,8.78
2023-03-08T20:22:58.114Z,8.75
2023-03-08T20:27:59.603Z,8.76
2023-03-08T20:33:01.130Z,8.79
2023-03-08T20:38:02.728Z,8.83
2023-03-08T20:43:04.346Z,8.86
2023-03-08T20:48:05.966Z,8.92
2023-03-08T20:53:07.463Z,8.95
2023-03-08T20:58:08.977Z,8.92
2023-03-08T21:03:10.656Z,8.97
2023-03-08T21:08:12.161Z,9.04
2023-03-08T21:13:13.889Z,9.10
2023-03-08T21:18:15.416Z,9.16
2023-03-08T21:23:21.284Z,9.20
2023-03-08T21:28:22.935Z,9.19
2023-03-08T21:33:24.447Z,9.23
2023-03-08T21:38:25.982Z,9.26
2023-03-08T21:43:27.473Z,9.26
2023-03-08T21:48:28.957Z,9.25
2023-03-08T21:53:30.512Z,9.25
2023-03-08T21:58:32.025Z,9.23
2023-03-08T22:03:34.715Z,9.28
2023-03-08T22:08:36.290Z,9.30
2023-03-08T22:13:37.790Z,9.33
2023-03-08T22:18:39.816Z,9.35
2023-03-08T22:23:41.330Z,9.36
2023-03-08T22:28:42.975Z,9.35
2023-03-08T22:33:45.299Z,9.39
2023-03-08T22:38:47.213Z,9.39
2023-03-08T22:43:49.588Z,9.43
2023-03-08T22:48:52.524Z,9.42
2023-03-08T22:53:54.071Z,9.37
2023-03-08T22:58:56.090Z,9.37
2023-03-08T23:03:59.521Z,9.30
2023-03-08T23:09:08.897Z,9.27
2023-03-08T23:14:11.450Z,9.27
2023-03-08T23:19:18.547Z,9.28
2023-03-08T23:24:20.256Z,9.26
2023-03-08T23:29:23.881Z,9.25
2023-03-08T23:34:25.420Z,9.27
2023-03-08T23:39:26.991Z,9.24
2023-03-08T23:44:28.683Z,9.20
2023-03-08T23:49:30.315Z,9.15
2023-03-08T23:54:31.807Z,9.10
2023-03-08T23:59:33.355Z,8.65
